Time;durP1;ratioP1;P1;durP2;ratioP2;P2;SDS_P1;SDS_P2;PMS_P1;PMS_P2;Temp;Humidity;BMP_temperature;BMP_pressure;BME280_temperature;BME280_humidity;BME280_pressure;Samples;Min_cycle;Max_cycle;Signal;HPM_P1;HPM_P2
2023/12/24 00:00:13;;;;;;;1.60;0.40;;;;;;;;;;5031969;28;20030;-79
2023/12/24 00:02:38;;;;;;;1.98;0.60;;;;;;;;;;5033910;28;20034;-80
2023/12/24 00:05:03;;;;;;;2.00;0.50;;;;;;;;;;5027808;28;20030;-80
2023/12/24 00:07:29;;;;;;;1.70;0.63;;;;;;;;;;5034134;28;20029;-80
2023/12/24 00:09:54;;;;;;;1.75;0.65;;;;;;;;;;5025206;28;20034;-79
2023/12/24 00:12:19;;;;;;;1.65;0.60;;;;;;;;;;5029767;28;20786;-80
2023/12/24 00:14:44;;;;;;;1.02;0.40;;;;;;;;;;5033129;28;20038;-79
2023/12/24 00:17:09;;;;;;;1.60;0.50;;;;;;;;;;5029492;28;20061;-80
2023/12/24 00:19:34;;;;;;;1.70;0.55;;;;;;;;;;5035941;28;20057;-79
2023/12/24 00:22:00;;;;;;;1.85;0.73;;;;;;;;;;5025043;28;20415;-79
2023/12/24 00:24:25;;;;;;;1.83;0.75;;;;;;;;;;5026962;28;20051;-79
2023/12/24 00:26:50;;;;;;;2.70;1.27;;;;;;;;;;5030508;28;20057;-79
2023/12/24 00:29:15;;;;;;;2.33;0.90;;;;;;;;;;5031607;28;20030;-79
2023/12/24 00:31:40;;;;;;;2.85;1.23;;;;;;;;;;5033318;28;20036;-79
2023/12/24 00:34:06;;;;;;;1.83;0.80;;;;;;;;;;5026815;28;20030;-79
2023/12/24 00:36:31;;;;;;;1.52;0.73;;;;;;;;;;5033643;28;20482;-79
2023/12/24 00:38:56;;;;;;;2.40;1.00;;;;;;;;;;5025348;28;20121;-79
2023/12/24 00:41:21;;;;;;;1.88;0.80;;;;;;;;;;5031959;28;20017;-79
2023/12/24 00:43:46;;;;;;;2.83;1.30;;;;;;;;;;5031740;28;20513;-79
2023/12/24 00:46:15;;;;;;;4.22;1.80;;;;;;;;;;5026926;28;20034;-79
2023/12/24 00:48:41;;;;;;;3.45;1.77;;;;;;;;;;5025844;28;20524;-79
2023/12/24 00:51:06;;;;;;;4.30;1.85;;;;;;;;;;5026036;28;20026;-79
2023/12/24 00:53:31;;;;;;;3.60;1.90;;;;;;;;;;5029708;28;20660;-79
2023/12/24 00:55:58;;;;;;;2.85;1.55;;;;;;;;;;5031634;28;20120;-79
2023/12/24 00:58:23;;;;;;;4.57;1.88;;;;;;;;;;5029881;28;20053;-79
2023/12/24 01:00:48;;;;;;;2.95;1.42;;;;;;;;;;5027173;28;20127;-78
2023/12/24 01:03:14;;;;;;;3.38;1.10;;;;;;;;;;5027253;28;20058;-79
2023/12/24 01:05:39;;;;;;;2.95;1.30;;;;;;;;;;5023949;28;20263;-78
2023/12/24 01:08:04;;;;;;;2.63;1.38;;;;;;;;;;5033622;23;20049;-75
2023/12/24 01:10:29;;;;;;;2.63;1.05;;;;;;;;;;5029455;28;20029;-76
2023/12/24 01:12:55;;;;;;;3.53;1.70;;;;;;;;;;5029353;28;20456;-76
2023/12/24 01:15:20;;;;;;;2.40;1.13;;;;;;;;;;5031294;28;20037;-76
2023/12/24 01:17:45;;;;;;;1.65;0.77;;;;;;;;;;5034450;28;20501;-76
2023/12/24 01:20:14;;;;;;;2.85;1.42;;;;;;;;;;5032964;28;20079;-76
2023/12/24 01:22:39;;;;;;;1.95;0.90;;;;;;;;;;5028592;28;20436;-76
2023/12/24 01:25:05;;;;;;;1.67;0.98;;;;;;;;;;5030021;28;20029;-75
2023/12/24 01:27:30;;;;;;;1.85;0.90;;;;;;;;;;5029204;28;20497;-76
2023/12/24 01:29:55;;;;;;;2.63;1.02;;;;;;;;;;5025401;28;20056;-75
2023/12/24 01:32:20;;;;;;;1.75;0.90;;;;;;;;;;5031403;28;20042;-76
2023/12/24 01:34:46;;;;;;;3.20;1.20;;;;;;;;;;5025981;28;20112;-76
2023/12/24 01:37:11;;;;;;;3.55;1.10;;;;;;;;;;5031321;28;20067;-75
2023/12/24 01:39:36;;;;;;;3.40;1.42;;;;;;;;;;5030498;28;20029;-75
2023/12/24 01:42:02;;;;;;;2.22;1.02;;;;;;;;;;5027055;28;20061;-75
2023/12/24 01:44:28;;;;;;;2.08;1.05;;;;;;;;;;5032065;28;20490;-76
2023/12/24 01:46:53;;;;;;;2.85;1.42;;;;;;;;;;5023625;28;20068;-76
2023/12/24 01:49:19;;;;;;;2.55;1.30;;;;;;;;;;5032030;28;20069;-75
2023/12/24 01:51:44;;;;;;;2.25;1.15;;;;;;;;;;5032035;28;20033;-75
2023/12/24 01:54:10;;;;;;;2.40;1.33;;;;;;;;;;5028689;28;20064;-76
2023/12/24 01:56:38;;;;;;;3.15;1.40;;;;;;;;;;5031931;28;20512;-75
2023/12/24 01:59:03;;;;;;;3.05;1.20;;;;;;;;;;5023430;28;20044;-75
2023/12/24 02:01:29;;;;;;;3.65;1.30;;;;;;;;;;5031921;28;20481;-75
2023/12/24 02:03:55;;;;;;;2.78;1.42;;;;;;;;;;5027465;28;20030;-75
2023/12/24 02:06:21;;;;;;;3.15;1.70;;;;;;;;;;5029210;28;20109;-76
2023/12/24 02:08:46;;;;;;;3.30;1.85;;;;;;;;;;5031145;28;20057;-76
2023/12/24 02:11:12;;;;;;;3.33;1.60;;;;;;;;;;5028316;28;20068;-75
2023/12/24 02:13:37;;;;;;;3.25;1.27;;;;;;;;;;5026137;28;20036;-76
2023/12/24 02:16:03;;;;;;;2.95;1.40;;;;;;;;;;5024142;28;20029;-75
2023/12/24 02:18:28;;;;;;;2.83;1.33;;;;;;;;;;5027847;28;20517;-75
2023/12/24 02:21:03;;;;;;;3.22;1.75;;;;;;;;;;5012093;28;20056;-75
2023/12/24 02:23:29;;;;;;;3.25;1.10;;;;;;;;;;5025270;28;20418;-76
2023/12/24 02:25:56;;;;;;;3.25;1.17;;;;;;;;;;5024277;28;20037;-75
2023/12/24 02:28:24;;;;;;;2.15;0.52;;;;;;;;;;5024077;28;20036;-76
2023/12/24 02:30:55;;;;;;;3.00;0.77;;;;;;;;;;5023378;28;20037;-75
2023/12/24 02:33:23;;;;;;;2.60;0.65;;;;;;;;;;5028443;28;20030;-75
2023/12/24 02:35:48;;;;;;;3.70;1.25;;;;;;;;;;5030595;28;20038;-75
2023/12/24 02:38:14;;;;;;;0.60;0.40;;;;;;;;;;5026822;28;20037;-75
2023/12/24 02:40:39;;;;;;;1.13;0.47;;;;;;;;;;5025097;28;20037;-75
2023/12/24 02:43:04;;;;;;;0.60;0.40;;;;;;;;;;5021264;28;20109;-75
2023/12/24 02:45:29;;;;;;;1.90;0.40;;;;;;;;;;5026553;28;20095;-76
2023/12/24 02:47:55;;;;;;;1.05;0.57;;;;;;;;;;5031847;28;20025;-76
2023/12/24 02:50:20;;;;;;;1.75;0.57;;;;;;;;;;5027071;28;20037;-76
2023/12/24 02:52:46;;;;;;;2.97;0.55;;;;;;;;;;5027749;28;20033;-76
2023/12/24 02:55:11;;;;;;;2.20;0.50;;;;;;;;;;5025253;28;20113;-76
2023/12/24 02:57:36;;;;;;;1.27;0.60;;;;;;;;;;5023216;28;20129;-76
2023/12/24 03:00:04;;;;;;;2.60;0.63;;;;;;;;;;5026145;28;20037;-77
2023/12/24 03:02:29;;;;;;;1.38;0.50;;;;;;;;;;5011120;28;20504;-77
2023/12/24 03:04:55;;;;;;;2.28;0.60;;;;;;;;;;5026802;28;20116;-78
2023/12/24 03:07:20;;;;;;;1.70;0.68;;;;;;;;;;5025852;28;20030;-77
2023/12/24 03:09:46;;;;;;;1.58;0.77;;;;;;;;;;5022630;28;20563;-77
2023/12/24 03:12:12;;;;;;;2.28;0.65;;;;;;;;;;5023851;28;20021;-77
2023/12/24 03:14:37;;;;;;;3.53;0.70;;;;;;;;;;5030029;28;20095;-77
2023/12/24 03:17:02;;;;;;;1.27;0.60;;;;;;;;;;5028116;28;20030;-78
2023/12/24 03:19:27;;;;;;;2.53;0.70;;;;;;;;;;5030527;28;20115;-78
2023/12/24 03:21:53;;;;;;;3.53;0.68;;;;;;;;;;5024610;28;20025;-77
2023/12/24 03:24:18;;;;;;;2.28;0.85;;;;;;;;;;5021530;28;20505;-78
2023/12/24 03:26:43;;;;;;;1.13;0.60;;;;;;;;;;5025923;28;20079;-77
2023/12/24 03:29:09;;;;;;;3.65;0.70;;;;;;;;;;5028202;28;20040;-78
2023/12/24 03:31:35;;;;;;;2.80;0.70;;;;;;;;;;5030173;28;20037;-77
2023/12/24 03:34:00;;;;;;;1.17;0.45;;;;;;;;;;5024570;28;20045;-78
2023/12/24 03:36:25;;;;;;;1.08;0.60;;;;;;;;;;5026314;28;20132;-77
2023/12/24 03:38:50;;;;;;;1.50;0.60;;;;;;;;;;5021519;28;20037;-78
2023/12/24 03:41:15;;;;;;;2.28;0.60;;;;;;;;;;5028485;28;20032;-78
2023/12/24 03:43:40;;;;;;;1.40;0.60;;;;;;;;;;5029680;28;20025;-78
2023/12/24 03:46:06;;;;;;;1.55;0.68;;;;;;;;;;5025839;28;20029;-78
2023/12/24 03:48:32;;;;;;;1.30;0.60;;;;;;;;;;5030844;28;20129;-78
2023/12/24 03:50:57;;;;;;;1.95;0.70;;;;;;;;;;5022553;28;20108;-77
2023/12/24 03:53:22;;;;;;;0.98;0.50;;;;;;;;;;5020984;28;20116;-77
2023/12/24 03:55:47;;;;;;;1.65;0.55;;;;;;;;;;5029922;28;20096;-77
2023/12/24 03:58:12;;;;;;;3.83;0.88;;;;;;;;;;5027335;28;20119;-77
2023/12/24 04:00:38;;;;;;;2.97;0.63;;;;;;;;;;5029765;28;20041;-78
2023/12/24 04:03:03;;;;;;;1.80;0.60;;;;;;;;;;5019195;28;20100;-78
2023/12/24 04:05:28;;;;;;;3.47;0.70;;;;;;;;;;5018017;28;20049;-78
2023/12/24 04:07:53;;;;;;;1.55;0.70;;;;;;;;;;5023425;28;20065;-78
2023/12/24 04:10:18;;;;;;;3.00;0.70;;;;;;;;;;5027250;28;20030;-78
2023/12/24 04:12:44;;;;;;;2.60;0.93;;;;;;;;;;5026588;28;20420;-77
2023/12/24 04:15:10;;;;;;;1.40;0.52;;;;;;;;;;5026191;28;20029;-78
2023/12/24 04:17:35;;;;;;;2.45;0.70;;;;;;;;;;5021690;28;20029;-78
2023/12/24 04:20:02;;;;;;;2.38;0.68;;;;;;;;;;5026638;28;20688;-78
2023/12/24 04:22:27;;;;;;;4.00;1.20;;;;;;;;;;5036945;28;20113;-77
2023/12/24 04:24:52;;;;;;;1.83;0.60;;;;;;;;;;5029467;28;20072;-77
2023/12/24 04:27:18;;;;;;;1.40;0.60;;;;;;;;;;5023991;28;20079;-77
2023/12/24 04:29:43;;;;;;;1.98;0.47;;;;;;;;;;5029260;28;20025;-78
2023/12/24 04:32:08;;;;;;;2.17;0.43;;;;;;;;;;5020397;28;20030;-78
2023/12/24 04:34:33;;;;;;;3.58;0.85;;;;;;;;;;5029090;28;20025;-77
2023/12/24 04:36:59;;;;;;;5.43;0.70;;;;;;;;;;5026993;28;20033;-77
2023/12/24 04:39:24;;;;;;;1.92;0.50;;;;;;;;;;5026052;28;21319;-77
2023/12/24 04:41:50;;;;;;;2.30;0.60;;;;;;;;;;5025437;28;20516;-78
2023/12/24 04:44:15;;;;;;;2.45;0.70;;;;;;;;;;5021732;28;20033;-78
2023/12/24 04:46:42;;;;;;;3.72;1.00;;;;;;;;;;5026439;28;20044;-78
2023/12/24 04:49:07;;;;;;;2.63;0.90;;;;;;;;;;5027841;28;20037;-78
2023/12/24 04:51:32;;;;;;;3.85;0.93;;;;;;;;;;5033230;28;20564;-78
2023/12/24 04:53:57;;;;;;;2.70;0.80;;;;;;;;;;5030025;28;20059;-78
2023/12/24 04:56:23;;;;;;;3.92;0.75;;;;;;;;;;5027784;28;20469;-77
2023/12/24 04:58:48;;;;;;;2.83;1.00;;;;;;;;;;5026347;28;20044;-77
2023/12/24 05:01:15;;;;;;;2.72;0.68;;;;;;;;;;5023175;28;20053;-78
2023/12/24 05:03:40;;;;;;;2.78;0.80;;;;;;;;;;5024771;28;20037;-77
2023/12/24 05:06:06;;;;;;;2.40;0.70;;;;;;;;;;5031506;28;20442;-78
2023/12/24 05:08:31;;;;;;;2.80;0.60;;;;;;;;;;5032122;28;20033;-78
2023/12/24 05:10:56;;;;;;;1.85;0.75;;;;;;;;;;5027289;28;20038;-78
2023/12/24 05:13:21;;;;;;;2.72;0.70;;;;;;;;;;5026624;28;20137;-77
2023/12/24 05:15:47;;;;;;;3.30;0.70;;;;;;;;;;5028818;28;20032;-77
2023/12/24 05:18:12;;;;;;;3.75;0.85;;;;;;;;;;5032248;28;20041;-77
2023/12/24 05:20:37;;;;;;;1.85;0.55;;;;;;;;;;5031971;28;20040;-77
2023/12/24 05:23:03;;;;;;;1.23;0.55;;;;;;;;;;5028985;28;20037;-78
2023/12/24 05:25:28;;;;;;;3.90;0.88;;;;;;;;;;5029287;28;20021;-77
2023/12/24 05:27:53;;;;;;;4.97;0.93;;;;;;;;;;5024255;28;20447;-77
2023/12/24 05:30:18;;;;;;;3.15;0.70;;;;;;;;;;5024324;28;20101;-77
2023/12/24 05:32:43;;;;;;;2.58;0.73;;;;;;;;;;5032631;28;20065;-78
2023/12/24 05:35:09;;;;;;;2.83;0.98;;;;;;;;;;5031388;28;20398;-78
2023/12/24 05:37:34;;;;;;;2.92;0.70;;;;;;;;;;5028834;28;20517;-78
2023/12/24 05:39:59;;;;;;;2.65;0.60;;;;;;;;;;5026834;28;20497;-77
2023/12/24 05:42:24;;;;;;;4.20;0.60;;;;;;;;;;5025685;28;20033;-78
2023/12/24 05:44:49;;;;;;;3.60;0.60;;;;;;;;;;5025717;28;20140;-78
2023/12/24 05:47:15;;;;;;;2.83;0.70;;;;;;;;;;5031112;28;20030;-78
2023/12/24 05:49:40;;;;;;;2.13;0.80;;;;;;;;;;5030799;28;20108;-78
2023/12/24 05:52:05;;;;;;;2.53;1.23;;;;;;;;;;5027541;28;20045;-77
2023/12/24 05:54:30;;;;;;;3.42;0.73;;;;;;;;;;5027393;28;20030;-78
2023/12/24 05:56:55;;;;;;;4.25;0.90;;;;;;;;;;5026814;28;20461;-78
2023/12/24 05:59:21;;;;;;;3.58;0.85;;;;;;;;;;5027008;28;20030;-77
2023/12/24 06:01:46;;;;;;;1.65;0.50;;;;;;;;;;5031462;28;20053;-78
2023/12/24 06:04:12;;;;;;;3.22;0.75;;;;;;;;;;5027157;28;20146;-78
2023/12/24 06:06:41;;;;;;;1.77;0.50;;;;;;;;;;5028580;28;20405;-77
2023/12/24 06:09:06;;;;;;;2.40;0.80;;;;;;;;;;5022643;28;20041;-77
2023/12/24 06:11:32;;;;;;;2.88;0.60;;;;;;;;;;5025725;28;20029;-77
2023/12/24 06:13:57;;;;;;;3.78;0.95;;;;;;;;;;5028293;28;20030;-78
2023/12/24 06:16:22;;;;;;;2.00;0.80;;;;;;;;;;5030004;28;20097;-77
2023/12/24 06:18:48;;;;;;;2.33;0.50;;;;;;;;;;5034345;28;20065;-77
2023/12/24 06:21:13;;;;;;;1.85;0.55;;;;;;;;;;5025645;28;20116;-77
2023/12/24 06:23:39;;;;;;;2.08;0.70;;;;;;;;;;5026523;28;20056;-77
2023/12/24 06:26:05;;;;;;;1.27;0.40;;;;;;;;;;5024198;28;20032;-77
2023/12/24 06:28:30;;;;;;;1.10;0.40;;;;;;;;;;5030839;28;20030;-77
2023/12/24 06:30:55;;;;;;;3.30;0.60;;;;;;;;;;5030305;28;20401;-77
2023/12/24 06:33:21;;;;;;;0.55;0.20;;;;;;;;;;5026896;28;20069;-77
2023/12/24 06:35:46;;;;;;;2.10;0.60;;;;;;;;;;5028587;28;20108;-77
2023/12/24 06:38:11;;;;;;;1.38;0.40;;;;;;;;;;5022295;28;20113;-77
2023/12/24 06:40:36;;;;;;;4.35;0.73;;;;;;;;;;5028003;28;20099;-77
2023/12/24 06:43:02;;;;;;;1.45;0.38;;;;;;;;;;5029637;28;20030;-78
2023/12/24 06:45:27;;;;;;;2.17;0.38;;;;;;;;;;5028548;28;20033;-77
2023/12/24 06:47:52;;;;;;;2.03;0.60;;;;;;;;;;5028222;28;20021;-78
2023/12/24 06:50:18;;;;;;;1.75;0.47;;;;;;;;;;5026473;28;20591;-77
2023/12/24 06:52:43;;;;;;;2.63;0.50;;;;;;;;;;5026200;28;20433;-77
2023/12/24 06:55:09;;;;;;;1.85;0.40;;;;;;;;;;5024543;28;20045;-77
2023/12/24 06:57:34;;;;;;;0.50;0.30;;;;;;;;;;5029651;28;20119;-77
2023/12/24 06:59:59;;;;;;;0.60;0.32;;;;;;;;;;5028354;28;20065;-77
2023/12/24 07:02:24;;;;;;;1.17;0.40;;;;;;;;;;5024924;28;20180;-77
2023/12/24 07:04:49;;;;;;;1.33;0.30;;;;;;;;;;5025480;28;20053;-77
2023/12/24 07:07:14;;;;;;;1.25;0.30;;;;;;;;;;5025290;28;20486;-78
2023/12/24 07:09:40;;;;;;;1.23;0.45;;;;;;;;;;5026871;28;20033;-77
2023/12/24 07:12:05;;;;;;;2.55;0.43;;;;;;;;;;5039798;23;20045;-79
2023/12/24 07:14:30;;;;;;;0.82;0.20;;;;;;;;;;5020462;28;20030;-79
2023/12/24 07:16:55;;;;;;;1.45;0.60;;;;;;;;;;5022434;28;20021;-79
2023/12/24 07:19:21;;;;;;;1.70;0.20;;;;;;;;;;5023693;28;20065;-79
2023/12/24 07:21:46;;;;;;;0.80;0.30;;;;;;;;;;5022605;28;20038;-79
2023/12/24 07:24:12;;;;;;;0.65;0.20;;;;;;;;;;5019439;28;20021;-79
2023/12/24 07:26:37;;;;;;;0.60;0.30;;;;;;;;;;5019914;28;20537;-79
2023/12/24 07:29:02;;;;;;;0.68;0.20;;;;;;;;;;5021700;28;20029;-78
2023/12/24 07:31:28;;;;;;;1.92;0.40;;;;;;;;;;5019727;28;20045;-79
2023/12/24 07:33:53;;;;;;;1.52;0.50;;;;;;;;;;5022016;28;20379;-78
2023/12/24 07:36:18;;;;;;;0.98;0.30;;;;;;;;;;5021209;28;20025;-79
2023/12/24 07:38:43;;;;;;;1.10;0.30;;;;;;;;;;5017655;28;20156;-78
2023/12/24 07:41:09;;;;;;;1.52;0.20;;;;;;;;;;5021601;28;20120;-79
2023/12/24 07:43:34;;;;;;;1.35;0.32;;;;;;;;;;5019663;28;20034;-79
2023/12/24 07:45:59;;;;;;;2.20;0.47;;;;;;;;;;5021592;28;20049;-79
2023/12/24 07:48:25;;;;;;;0.25;0.10;;;;;;;;;;5024373;28;20041;-79
2023/12/24 07:50:50;;;;;;;0.68;0.28;;;;;;;;;;5017609;28;20037;-79
2023/12/24 07:53:15;;;;;;;0.85;0.20;;;;;;;;;;5019922;28;20029;-79
2023/12/24 07:55:41;;;;;;;0.63;0.10;;;;;;;;;;5020368;28;20053;-78
2023/12/24 07:58:06;;;;;;;0.43;0.10;;;;;;;;;;5019120;28;20056;-78
2023/12/24 08:00:31;;;;;;;0.95;0.20;;;;;;;;;;5019877;28;20057;-79
2023/12/24 08:02:57;;;;;;;0.90;0.30;;;;;;;;;;5019467;28;20091;-79
2023/12/24 08:05:22;;;;;;;0.20;0.20;;;;;;;;;;5019740;28;20038;-79
2023/12/24 08:07:47;;;;;;;1.45;0.20;;;;;;;;;;5021198;28;20036;-79
2023/12/24 08:10:12;;;;;;;0.32;0.20;;;;;;;;;;5020734;28;20033;-78
2023/12/24 08:12:37;;;;;;;0.75;0.10;;;;;;;;;;5020051;28;20061;-79
2023/12/24 08:15:03;;;;;;;1.88;0.20;;;;;;;;;;5020285;28;20395;-79
2023/12/24 08:17:28;;;;;;;1.13;0.20;;;;;;;;;;5018547;28;20105;-78
2023/12/24 08:19:54;;;;;;;0.30;0.10;;;;;;;;;;5019456;28;20036;-79
2023/12/24 08:22:20;;;;;;;1.13;0.20;;;;;;;;;;5023576;28;20042;-79
2023/12/24 08:24:45;;;;;;;2.92;0.75;;;;;;;;;;5024894;28;20040;-79
2023/12/24 08:27:10;;;;;;;0.20;0.10;;;;;;;;;;5023750;28;20041;-78
2023/12/24 08:29:36;;;;;;;0.80;0.28;;;;;;;;;;5027840;28;20486;-79
2023/12/24 08:32:01;;;;;;;1.15;0.10;;;;;;;;;;5026655;28;20064;-79
2023/12/24 08:34:26;;;;;;;0.57;0.10;;;;;;;;;;5023534;28;20042;-79
2023/12/24 08:36:51;;;;;;;1.55;0.00;;;;;;;;;;5024674;28;20068;-79
2023/12/24 08:39:17;;;;;;;0.52;0.10;;;;;;;;;;5023216;28;20034;-79
2023/12/24 08:41:42;;;;;;;0.65;0.20;;;;;;;;;;5026959;28;20033;-79
2023/12/24 08:44:07;;;;;;;0.50;0.10;;;;;;;;;;5020961;28;20080;-79
2023/12/24 08:46:32;;;;;;;0.40;0.10;;;;;;;;;;5022596;28;20527;-79
2023/12/24 08:48:58;;;;;;;1.00;0.20;;;;;;;;;;5026439;28;20029;-79
2023/12/24 08:51:23;;;;;;;0.17;0.10;;;;;;;;;;5022385;28;20108;-78
2023/12/24 08:53:48;;;;;;;0.00;0.00;;;;;;;;;;5025807;28;20053;-79
2023/12/24 08:56:13;;;;;;;0.40;0.10;;;;;;;;;;5022905;28;20438;-79
2023/12/24 08:58:38;;;;;;;0.73;0.10;;;;;;;;;;5025533;28;20300;-79
2023/12/24 09:01:04;;;;;;;0.75;0.10;;;;;;;;;;5018126;28;20052;-79
2023/12/24 09:03:29;;;;;;;0.32;0.10;;;;;;;;;;5022823;28;20038;-79
2023/12/24 09:05:54;;;;;;;0.70;0.13;;;;;;;;;;5011917;28;20038;-79
2023/12/24 09:08:19;;;;;;;1.35;0.20;;;;;;;;;;5022393;28;20473;-79
2023/12/24 09:10:45;;;;;;;0.68;0.30;;;;;;;;;;5020218;28;20045;-79
2023/12/24 09:13:10;;;;;;;0.70;0.17;;;;;;;;;;5023515;28;20042;-79
2023/12/24 09:15:35;;;;;;;1.05;0.30;;;;;;;;;;5018994;28;20169;-81
2023/12/24 09:18:00;;;;;;;1.70;0.40;;;;;;;;;;5024802;28;20151;-79
2023/12/24 09:20:26;;;;;;;1.30;0.30;;;;;;;;;;5022003;28;20571;-79
2023/12/24 09:22:51;;;;;;;1.15;0.40;;;;;;;;;;5025433;28;20030;-79
2023/12/24 09:25:16;;;;;;;0.98;0.30;;;;;;;;;;5006450;28;20025;-80
2023/12/24 09:27:42;;;;;;;2.53;0.43;;;;;;;;;;5020377;28;20024;-80
2023/12/24 09:30:07;;;;;;;0.40;0.10;;;;;;;;;;5022181;28;20508;-80
2023/12/24 09:32:32;;;;;;;1.33;0.40;;;;;;;;;;5021806;28;20446;-80
2023/12/24 09:34:58;;;;;;;0.50;0.20;;;;;;;;;;5025867;28;20454;-80
2023/12/24 09:37:24;;;;;;;1.20;0.22;;;;;;;;;;5022111;28;20038;-80
2023/12/24 09:39:49;;;;;;;0.57;0.20;;;;;;;;;;5023164;28;20029;-80
2023/12/24 09:42:14;;;;;;;0.70;0.25;;;;;;;;;;5024865;28;20041;-80
2023/12/24 09:44:39;;;;;;;1.10;0.40;;;;;;;;;;5022153;28;20053;-80
2023/12/24 09:47:04;;;;;;;2.30;0.20;;;;;;;;;;5024172;28;20087;-80
2023/12/24 09:49:30;;;;;;;0.35;0.20;;;;;;;;;;5023369;28;20046;-80
2023/12/24 09:51:56;;;;;;;1.10;0.30;;;;;;;;;;5024218;28;20051;-80
2023/12/24 09:54:22;;;;;;;0.88;0.15;;;;;;;;;;5022386;28;20033;-80
2023/12/24 09:56:47;;;;;;;0.30;0.10;;;;;;;;;;5021607;28;20034;-80
2023/12/24 09:59:12;;;;;;;1.02;0.20;;;;;;;;;;5021692;28;20030;-80
2023/12/24 10:01:42;;;;;;;0.63;0.20;;;;;;;;;;5022876;28;20474;-80
2023/12/24 10:04:07;;;;;;;1.35;0.20;;;;;;;;;;5022760;28;20029;-80
2023/12/24 10:06:33;;;;;;;1.55;0.50;;;;;;;;;;5038219;28;20033;-80
2023/12/24 10:08:58;;;;;;;0.63;0.20;;;;;;;;;;5025851;28;20025;-80
2023/12/24 10:11:23;;;;;;;0.38;0.10;;;;;;;;;;5020961;28;20060;-81
2023/12/24 10:13:59;;;;;;;1.27;0.20;;;;;;;;;;5023315;28;20026;-80
2023/12/24 10:16:24;;;;;;;1.95;0.50;;;;;;;;;;5022479;28;20030;-80
2023/12/24 10:18:49;;;;;;;1.23;0.30;;;;;;;;;;5027014;28;20033;-80
2023/12/24 10:21:15;;;;;;;0.50;0.20;;;;;;;;;;5004926;28;20038;-80
2023/12/24 10:23:40;;;;;;;1.88;0.50;;;;;;;;;;5020828;28;20034;-80
2023/12/24 10:26:07;;;;;;;0.30;0.10;;;;;;;;;;5022435;28;20109;-81
2023/12/24 10:28:32;;;;;;;0.70;0.22;;;;;;;;;;5019501;28;20036;-81
2023/12/24 10:31:10;;;;;;;0.57;0.28;;;;;;;;;;5024041;28;20034;-81
2023/12/24 10:33:38;;;;;;;1.38;0.40;;;;;;;;;;5025379;28;20041;-80
2023/12/24 10:36:04;;;;;;;0.60;0.28;;;;;;;;;;5005525;28;20040;-80
2023/12/24 10:38:30;;;;;;;0.73;0.20;;;;;;;;;;5019965;28;20465;-81
2023/12/24 10:40:55;;;;;;;0.55;0.20;;;;;;;;;;5023436;28;20540;-81
2023/12/24 10:43:20;;;;;;;1.13;0.25;;;;;;;;;;5020110;28;20437;-80
2023/12/24 10:45:46;;;;;;;1.40;0.20;;;;;;;;;;5022327;28;20556;-81
2023/12/24 10:48:11;;;;;;;0.90;0.30;;;;;;;;;;5023795;28;20060;-80
2023/12/24 10:50:37;;;;;;;0.63;0.30;;;;;;;;;;5020366;28;20033;-81
2023/12/24 10:53:02;;;;;;;0.77;0.20;;;;;;;;;;5023583;28;20037;-80
2023/12/24 10:55:29;;;;;;;1.02;0.20;;;;;;;;;;5021568;28;20040;-80
2023/12/24 10:58:13;;;;;;;0.65;0.20;;;;;;;;;;5023938;28;20044;-81
2023/12/24 11:00:38;;;;;;;0.35;0.28;;;;;;;;;;5020836;28;20034;-81
2023/12/24 11:03:03;;;;;;;0.73;0.28;;;;;;;;;;5019499;28;20072;-81
2023/12/24 11:05:40;;;;;;;1.05;0.30;;;;;;;;;;5021229;28;20391;-81
2023/12/24 11:08:25;;;;;;;0.88;0.20;;;;;;;;;;5012404;28;20490;-81
2023/12/24 11:10:54;;;;;;;0.88;0.10;;;;;;;;;;5020725;28;20108;-81
2023/12/24 11:13:36;;;;;;;0.20;0.10;;;;;;;;;;5018397;28;20117;-80
2023/12/24 11:16:03;;;;;;;0.30;0.10;;;;;;;;;;5035667;28;20402;-81
2023/12/24 11:18:40;;;;;;;0.52;0.20;;;;;;;;;;5021938;28;20033;-81
2023/12/24 11:21:05;;;;;;;1.17;0.32;;;;;;;;;;5022260;28;20033;-81
2023/12/24 11:23:31;;;;;;;1.63;0.10;;;;;;;;;;5017256;28;20371;-80
2023/12/24 11:25:56;;;;;;;0.28;0.10;;;;;;;;;;5023676;28;20485;-81
2023/12/24 11:28:24;;;;;;;0.15;0.00;;;;;;;;;;5019091;28;20076;-81
2023/12/24 11:30:49;;;;;;;0.47;0.20;;;;;;;;;;5022823;28;20383;-81
2023/12/24 11:33:28;;;;;;;0.43;0.03;;;;;;;;;;5018126;28;20529;-81
2023/12/24 11:35:54;;;;;;;0.82;0.25;;;;;;;;;;5021150;28;20026;-81
2023/12/24 11:38:51;;;;;;;0.73;0.20;;;;;;;;;;5020151;28;20733;-81
2023/12/24 11:41:17;;;;;;;0.68;0.20;;;;;;;;;;4986995;28;20552;-81
2023/12/24 11:43:53;;;;;;;0.70;0.50;;;;;;;;;;5022397;28;20026;-81
2023/12/24 11:46:19;;;;;;;2.38;0.40;;;;;;;;;;5017522;28;20033;-81
2023/12/24 11:48:44;;;;;;;2.30;0.57;;;;;;;;;;5021426;28;20355;-82
2023/12/24 11:51:10;;;;;;;3.00;1.02;;;;;;;;;;5020862;28;20033;-81
2023/12/24 11:53:36;;;;;;;0.30;0.20;;;;;;;;;;5020067;28;20021;-81
2023/12/24 11:56:12;;;;;;;0.47;0.10;;;;;;;;;;5010112;28;20030;-81
2023/12/24 11:58:41;;;;;;;0.88;0.10;;;;;;;;;;5022269;28;20087;-82
2023/12/24 12:01:07;;;;;;;0.50;0.10;;;;;;;;;;5019146;28;20063;-82
2023/12/24 12:03:33;;;;;;;0.47;0.10;;;;;;;;;;5014071;28;20065;-82
2023/12/24 12:05:58;;;;;;;0.57;0.10;;;;;;;;;;5022776;28;20067;-82
2023/12/24 12:08:24;;;;;;;0.43;0.20;;;;;;;;;;5018496;28;20418;-81
2023/12/24 12:10:49;;;;;;;1.13;0.20;;;;;;;;;;5022676;28;20063;-81
2023/12/24 12:13:14;;;;;;;0.60;0.13;;;;;;;;;;5018747;28;20087;-81
2023/12/24 12:15:39;;;;;;;0.70;0.20;;;;;;;;;;5018896;28;20380;-81
2023/12/24 12:18:04;;;;;;;0.70;0.20;;;;;;;;;;5023189;28;20478;-82
2023/12/24 12:20:31;;;;;;;1.58;0.30;;;;;;;;;;5017577;28;20299;-81
2023/12/24 12:22:57;;;;;;;1.30;0.40;;;;;;;;;;5020655;28;20022;-82
2023/12/24 12:25:22;;;;;;;1.20;0.63;;;;;;;;;;5019245;28;20490;-82
2023/12/24 12:27:47;;;;;;;0.63;0.10;;;;;;;;;;5018579;28;20018;-82
2023/12/24 12:30:12;;;;;;;0.40;0.20;;;;;;;;;;5020759;28;20330;-82
2023/12/24 12:32:37;;;;;;;0.43;0.20;;;;;;;;;;5019051;28;20120;-82
2023/12/24 12:35:03;;;;;;;0.40;0.20;;;;;;;;;;5022074;28;20021;-82
2023/12/24 12:37:28;;;;;;;0.80;0.30;;;;;;;;;;5001206;28;20285;-82
2023/12/24 12:39:53;;;;;;;0.50;0.17;;;;;;;;;;5021954;28;20045;-82
2023/12/24 12:42:18;;;;;;;0.77;0.20;;;;;;;;;;5018641;28;20022;-82
2023/12/24 12:44:44;;;;;;;0.28;0.10;;;;;;;;;;5018121;28;20025;-82
2023/12/24 12:47:09;;;;;;;0.38;0.10;;;;;;;;;;5020210;28;20067;-82
2023/12/24 12:49:34;;;;;;;0.35;0.10;;;;;;;;;;5003871;28;20034;-82
2023/12/24 12:51:59;;;;;;;1.27;0.40;;;;;;;;;;5024364;28;20163;-81
2023/12/24 12:54:24;;;;;;;0.95;0.30;;;;;;;;;;5018776;28;20100;-82
2023/12/24 12:56:49;;;;;;;1.63;0.40;;;;;;;;;;5019820;28;20084;-81
2023/12/24 12:59:22;;;;;;;0.60;0.20;;;;;;;;;;5020515;28;20044;-81
2023/12/24 13:01:47;;;;;;;0.15;0.10;;;;;;;;;;5017183;28;20034;-82
2023/12/24 13:04:24;;;;;;;0.40;0.20;;;;;;;;;;5018350;28;20489;-82
2023/12/24 13:06:54;;;;;;;1.08;0.10;;;;;;;;;;5016866;28;20022;-81
2023/12/24 13:09:22;;;;;;;0.28;0.10;;;;;;;;;;5022044;28;20021;-82
2023/12/24 13:11:48;;;;;;;0.25;0.10;;;;;;;;;;5021821;28;20500;-82
2023/12/24 13:14:13;;;;;;;1.67;0.10;;;;;;;;;;5025156;28;20026;-82
2023/12/24 13:16:38;;;;;;;0.75;0.20;;;;;;;;;;5022817;28;20045;-82
2023/12/24 13:19:15;;;;;;;2.08;0.20;;;;;;;;;;5026887;28;20026;-82
2023/12/24 13:21:41;;;;;;;0.63;0.10;;;;;;;;;;5025078;28;20030;-82
2023/12/24 13:24:06;;;;;;;1.63;0.15;;;;;;;;;;5021621;28;20029;-82
2023/12/24 13:26:31;;;;;;;0.85;0.10;;;;;;;;;;5022776;28;20041;-83
2023/12/24 13:28:59;;;;;;;0.75;0.10;;;;;;;;;;5024514;28;20037;-82
2023/12/24 13:31:26;;;;;;;0.00;0.00;;;;;;;;;;5023704;28;20152;-81
2023/12/24 13:33:51;;;;;;;0.10;0.10;;;;;;;;;;5024428;28;20033;-82
2023/12/24 13:36:16;;;;;;;0.55;0.10;;;;;;;;;;5021856;28;20048;-81
2023/12/24 13:38:41;;;;;;;0.10;0.10;;;;;;;;;;5017335;28;20030;-82
2023/12/24 13:41:07;;;;;;;0.38;0.20;;;;;;;;;;5024277;28;20025;-82
2023/12/24 13:43:32;;;;;;;1.73;0.30;;;;;;;;;;5021657;28;20041;-82
2023/12/24 13:45:57;;;;;;;1.45;0.10;;;;;;;;;;5025326;28;20025;-82
2023/12/24 13:48:23;;;;;;;0.00;0.00;;;;;;;;;;5022172;28;20104;-82
2023/12/24 13:50:48;;;;;;;0.47;0.15;;;;;;;;;;5024021;28;20034;-81
2023/12/24 13:53:13;;;;;;;0.45;0.15;;;;;;;;;;5021529;28;20036;-82
2023/12/24 13:55:38;;;;;;;1.00;0.40;;;;;;;;;;5021712;28;20113;-81
2023/12/24 13:58:04;;;;;;;0.90;0.32;;;;;;;;;;5024406;28;20028;-82
2023/12/24 14:00:29;;;;;;;0.40;0.20;;;;;;;;;;5021554;28;20030;-81
2023/12/24 14:02:56;;;;;;;1.90;0.20;;;;;;;;;;5022511;28;20486;-82
2023/12/24 14:05:23;;;;;;;0.70;0.20;;;;;;;;;;5024061;28;20034;-81
2023/12/24 14:07:48;;;;;;;2.50;0.25;;;;;;;;;;5020802;28;20030;-82
2023/12/24 14:10:13;;;;;;;1.27;0.22;;;;;;;;;;5023999;28;20452;-82
2023/12/24 14:12:39;;;;;;;0.63;0.20;;;;;;;;;;5019756;28;20049;-82
2023/12/24 14:15:06;;;;;;;0.85;0.32;;;;;;;;;;5021261;28;20040;-82
2023/12/24 14:17:32;;;;;;;0.68;0.30;;;;;;;;;;5021909;28;20096;-82
2023/12/24 14:19:57;;;;;;;0.57;0.20;;;;;;;;;;5024208;28;20034;-81
2023/12/24 14:22:23;;;;;;;1.02;0.43;;;;;;;;;;5022795;28;20028;-82
2023/12/24 14:24:50;;;;;;;0.47;0.20;;;;;;;;;;5022908;28;20026;-82
2023/12/24 14:27:15;;;;;;;2.35;0.50;;;;;;;;;;5022448;28;20517;-81
2023/12/24 14:29:40;;;;;;;1.08;0.43;;;;;;;;;;5022937;28;20033;-82
2023/12/24 14:32:06;;;;;;;1.23;0.30;;;;;;;;;;5020543;28;20026;-82
2023/12/24 14:34:31;;;;;;;0.68;0.30;;;;;;;;;;5019553;28;20279;-82